sensor_id;sensor_type;location;lat;lon;timestamp;P1;durP1;ratioP1;P2;durP2;ratioP2
25717;SDS011;13574;52.040;5.692;2023-04-24T00:02:22;5.72;;;3.53;;
25717;SDS011;13574;52.040;5.692;2023-04-24T00:04:48;6.30;;;3.20;;
25717;SDS011;13574;52.040;5.692;2023-04-24T00:07:14;6.90;;;3.85;;
25717;SDS011;13574;52.040;5.692;2023-04-24T00:09:41;5.18;;;3.47;;
25717;SDS011;13574;52.040;5.692;2023-04-24T00:12:08;6.47;;;3.45;;
25717;SDS011;13574;52.040;5.692;2023-04-24T00:14:35;6.38;;;3.70;;
25717;SDS011;13574;52.040;5.692;2023-04-24T00:17:01;7.28;;;3.92;;
25717;SDS011;13574;52.040;5.692;2023-04-24T00:19:30;4.97;;;3.30;;
25717;SDS011;13574;52.040;5.692;2023-04-24T00:21:56;6.10;;;3.47;;
25717;SDS011;13574;52.040;5.692;2023-04-24T00:24:21;7.47;;;3.70;;
25717;SDS011;13574;52.040;5.692;2023-04-24T00:26:47;6.68;;;3.88;;
25717;SDS011;13574;52.040;5.692;2023-04-24T00:29:12;6.25;;;3.45;;
25717;SDS011;13574;52.040;5.692;2023-04-24T00:31:38;5.53;;;3.50;;
25717;SDS011;13574;52.040;5.692;2023-04-24T00:34:04;6.93;;;3.70;;
25717;SDS011;13574;52.040;5.692;2023-04-24T00:36:30;4.85;;;3.47;;
25717;SDS011;13574;52.040;5.692;2023-04-24T00:38:57;5.45;;;3.55;;
25717;SDS011;13574;52.040;5.692;2023-04-24T00:41:24;5.20;;;3.30;;
25717;SDS011;13574;52.040;5.692;2023-04-24T00:43:50;8.13;;;3.72;;
25717;SDS011;13574;52.040;5.692;2023-04-24T00:46:17;4.72;;;3.17;;
25717;SDS011;13574;52.040;5.692;2023-04-24T00:48:43;6.95;;;3.65;;
25717;SDS011;13574;52.040;5.692;2023-04-24T00:51:09;5.47;;;3.40;;
25717;SDS011;13574;52.040;5.692;2023-04-24T00:53:35;5.10;;;3.17;;
25717;SDS011;13574;52.040;5.692;2023-04-24T00:56:01;4.18;;;2.85;;
25717;SDS011;13574;52.040;5.692;2023-04-24T00:58:27;4.53;;;2.67;;
25717;SDS011;13574;52.040;5.692;2023-04-24T01:00:54;4.90;;;2.50;;
25717;SDS011;13574;52.040;5.692;2023-04-24T01:03:22;3.90;;;2.40;;
25717;SDS011;13574;52.040;5.692;2023-04-24T01:05:51;3.65;;;2.50;;
25717;SDS011;13574;52.040;5.692;2023-04-24T01:08:19;3.90;;;2.58;;
25717;SDS011;13574;52.040;5.692;2023-04-24T01:10:45;4.32;;;2.55;;
25717;SDS011;13574;52.040;5.692;2023-04-24T01:13:13;4.78;;;2.55;;
25717;SDS011;13574;52.040;5.692;2023-04-24T01:15:39;2.55;;;1.92;;
25717;SDS011;13574;52.040;5.692;2023-04-24T01:18:04;3.40;;;1.80;;
25717;SDS011;13574;52.040;5.692;2023-04-24T01:20:31;2.15;;;1.40;;
25717;SDS011;13574;52.040;5.692;2023-04-24T01:22:57;2.83;;;1.20;;
25717;SDS011;13574;52.040;5.692;2023-04-24T01:25:23;3.20;;;1.20;;
25717;SDS011;13574;52.040;5.692;2023-04-24T01:27:50;1.50;;;1.10;;
25717;SDS011;13574;52.040;5.692;2023-04-24T01:30:17;2.40;;;1.20;;
25717;SDS011;13574;52.040;5.692;2023-04-24T01:32:43;1.98;;;1.23;;
25717;SDS011;13574;52.040;5.692;2023-04-24T01:35:10;1.83;;;1.00;;
25717;SDS011;13574;52.040;5.692;2023-04-24T01:37:36;2.47;;;1.10;;
25717;SDS011;13574;52.040;5.692;2023-04-24T01:40:02;2.80;;;1.60;;
25717;SDS011;13574;52.040;5.692;2023-04-24T01:42:31;4.38;;;1.67;;
25717;SDS011;13574;52.040;5.692;2023-04-24T01:44:57;3.65;;;1.55;;
25717;SDS011;13574;52.040;5.692;2023-04-24T01:47:24;2.75;;;1.65;;
25717;SDS011;13574;52.040;5.692;2023-04-24T01:49:50;2.53;;;1.58;;
25717;SDS011;13574;52.040;5.692;2023-04-24T01:52:16;2.83;;;1.75;;
25717;SDS011;13574;52.040;5.692;2023-04-24T01:54:43;3.70;;;1.90;;
25717;SDS011;13574;52.040;5.692;2023-04-24T01:57:09;4.32;;;1.70;;
25717;SDS011;13574;52.040;5.692;2023-04-24T01:59:35;2.65;;;1.77;;
25717;SDS011;13574;52.040;5.692;2023-04-24T02:02:01;2.42;;;1.73;;
25717;SDS011;13574;52.040;5.692;2023-04-24T02:04:27;2.85;;;1.67;;
25717;SDS011;13574;52.040;5.692;2023-04-24T02:06:53;3.22;;;1.73;;
25717;SDS011;13574;52.040;5.692;2023-04-24T02:09:19;3.83;;;1.77;;
25717;SDS011;13574;52.040;5.692;2023-04-24T02:11:45;3.28;;;2.05;;
25717;SDS011;13574;52.040;5.692;2023-04-24T02:14:10;4.43;;;2.50;;
25717;SDS011;13574;52.040;5.692;2023-04-24T02:16:36;3.78;;;2.58;;
25717;SDS011;13574;52.040;5.692;2023-04-24T02:19:02;3.90;;;2.40;;
25717;SDS011;13574;52.040;5.692;2023-04-24T02:21:28;3.90;;;2.85;;
25717;SDS011;13574;52.040;5.692;2023-04-24T02:23:55;6.18;;;3.30;;
25717;SDS011;13574;52.040;5.692;2023-04-24T02:26:21;6.15;;;3.28;;
25717;SDS011;13574;52.040;5.692;2023-04-24T02:28:47;5.18;;;3.30;;
25717;SDS011;13574;52.040;5.692;2023-04-24T02:31:13;6.63;;;3.88;;
25717;SDS011;13574;52.040;5.692;2023-04-24T02:33:39;7.30;;;3.90;;
25717;SDS011;13574;52.040;5.692;2023-04-24T02:36:05;7.05;;;3.97;;
25717;SDS011;13574;52.040;5.692;2023-04-24T02:38:30;8.05;;;4.75;;
25717;SDS011;13574;52.040;5.692;2023-04-24T02:40:56;8.68;;;4.35;;
25717;SDS011;13574;52.040;5.692;2023-04-24T02:43:21;9.43;;;4.88;;
25717;SDS011;13574;52.040;5.692;2023-04-24T02:45:47;7.72;;;4.95;;
25717;SDS011;13574;52.040;5.692;2023-04-24T02:48:13;9.02;;;5.00;;
25717;SDS011;13574;52.040;5.692;2023-04-24T02:50:39;8.93;;;5.45;;
25717;SDS011;13574;52.040;5.692;2023-04-24T02:53:05;10.32;;;6.20;;
25717;SDS011;13574;52.040;5.692;2023-04-24T02:55:31;9.98;;;5.72;;
25717;SDS011;13574;52.040;5.692;2023-04-24T02:57:56;10.73;;;6.43;;
25717;SDS011;13574;52.040;5.692;2023-04-24T03:00:22;12.15;;;6.75;;
25717;SDS011;13574;52.040;5.692;2023-04-24T03:02:48;11.00;;;7.13;;
25717;SDS011;13574;52.040;5.692;2023-04-24T03:05:14;11.60;;;7.50;;
25717;SDS011;13574;52.040;5.692;2023-04-24T03:07:40;13.95;;;7.78;;
25717;SDS011;13574;52.040;5.692;2023-04-24T03:10:06;12.38;;;7.85;;
25717;SDS011;13574;52.040;5.692;2023-04-24T03:12:32;14.30;;;7.47;;
25717;SDS011;13574;52.040;5.692;2023-04-24T03:14:58;11.88;;;6.93;;
25717;SDS011;13574;52.040;5.692;2023-04-24T03:17:23;13.15;;;7.68;;
25717;SDS011;13574;52.040;5.692;2023-04-24T03:19:49;10.25;;;5.85;;
25717;SDS011;13574;52.040;5.692;2023-04-24T03:22:15;10.98;;;6.20;;
25717;SDS011;13574;52.040;5.692;2023-04-24T03:24:40;10.07;;;5.88;;
25717;SDS011;13574;52.040;5.692;2023-04-24T03:27:06;11.15;;;6.15;;
25717;SDS011;13574;52.040;5.692;2023-04-24T03:29:32;9.48;;;6.03;;
25717;SDS011;13574;52.040;5.692;2023-04-24T03:31:57;9.05;;;6.03;;
25717;SDS011;13574;52.040;5.692;2023-04-24T03:34:23;12.73;;;6.07;;
25717;SDS011;13574;52.040;5.692;2023-04-24T03:36:49;11.35;;;6.55;;
25717;SDS011;13574;52.040;5.692;2023-04-24T03:39:15;11.25;;;7.03;;
25717;SDS011;13574;52.040;5.692;2023-04-24T03:41:40;14.63;;;7.40;;
25717;SDS011;13574;52.040;5.692;2023-04-24T03:44:06;11.00;;;7.35;;
25717;SDS011;13574;52.040;5.692;2023-04-24T03:46:32;12.35;;;7.40;;
25717;SDS011;13574;52.040;5.692;2023-04-24T03:48:57;17.83;;;9.38;;
25717;SDS011;13574;52.040;5.692;2023-04-24T03:51:23;19.08;;;11.30;;
25717;SDS011;13574;52.040;5.692;2023-04-24T03:53:49;20.83;;;10.90;;
25717;SDS011;13574;52.040;5.692;2023-04-24T03:56:14;19.17;;;11.15;;
25717;SDS011;13574;52.040;5.692;2023-04-24T03:58:40;20.33;;;11.27;;
25717;SDS011;13574;52.040;5.692;2023-04-24T04:01:06;21.27;;;12.55;;
25717;SDS011;13574;52.040;5.692;2023-04-24T04:03:32;22.50;;;13.13;;
25717;SDS011;13574;52.040;5.692;2023-04-24T04:05:58;22.27;;;12.18;;
25717;SDS011;13574;52.040;5.692;2023-04-24T04:08:24;25.08;;;13.27;;
25717;SDS011;13574;52.040;5.692;2023-04-24T04:10:50;23.42;;;12.30;;
25717;SDS011;13574;52.040;5.692;2023-04-24T04:13:15;27.80;;;15.48;;
25717;SDS011;13574;52.040;5.692;2023-04-24T04:15:41;29.45;;;15.40;;
25717;SDS011;13574;52.040;5.692;2023-04-24T04:18:07;25.88;;;14.32;;
25717;SDS011;13574;52.040;5.692;2023-04-24T04:20:33;33.35;;;17.17;;
25717;SDS011;13574;52.040;5.692;2023-04-24T04:22:59;33.35;;;17.05;;
25717;SDS011;13574;52.040;5.692;2023-04-24T04:25:24;31.45;;;16.88;;
25717;SDS011;13574;52.040;5.692;2023-04-24T04:27:50;33.78;;;17.77;;
25717;SDS011;13574;52.040;5.692;2023-04-24T04:30:16;32.15;;;17.08;;
25717;SDS011;13574;52.040;5.692;2023-04-24T04:32:43;34.47;;;17.40;;
25717;SDS011;13574;52.040;5.692;2023-04-24T04:35:09;31.35;;;17.73;;
25717;SDS011;13574;52.040;5.692;2023-04-24T04:37:35;32.22;;;16.63;;
25717;SDS011;13574;52.040;5.692;2023-04-24T04:40:01;31.75;;;16.23;;
25717;SDS011;13574;52.040;5.692;2023-04-24T04:42:31;30.88;;;14.93;;
25717;SDS011;13574;52.040;5.692;2023-04-24T04:44:59;22.73;;;12.73;;
25717;SDS011;13574;52.040;5.692;2023-04-24T04:47:25;24.15;;;13.70;;
25717;SDS011;13574;52.040;5.692;2023-04-24T04:49:52;24.25;;;12.70;;
25717;SDS011;13574;52.040;5.692;2023-04-24T04:52:17;19.92;;;11.05;;
25717;SDS011;13574;52.040;5.692;2023-04-24T04:54:43;21.73;;;11.73;;
25717;SDS011;13574;52.040;5.692;2023-04-24T04:57:09;21.75;;;11.57;;
25717;SDS011;13574;52.040;5.692;2023-04-24T04:59:35;20.50;;;10.38;;
25717;SDS011;13574;52.040;5.692;2023-04-24T05:02:02;18.65;;;9.45;;
25717;SDS011;13574;52.040;5.692;2023-04-24T05:04:27;13.25;;;7.90;;
25717;SDS011;13574;52.040;5.692;2023-04-24T05:06:53;17.23;;;9.02;;
25717;SDS011;13574;52.040;5.692;2023-04-24T05:09:19;14.07;;;7.53;;
25717;SDS011;13574;52.040;5.692;2023-04-24T05:11:44;14.52;;;7.78;;
25717;SDS011;13574;52.040;5.692;2023-04-24T05:14:10;15.23;;;7.70;;
25717;SDS011;13574;52.040;5.692;2023-04-24T05:16:37;19.48;;;8.85;;
25717;SDS011;13574;52.040;5.692;2023-04-24T05:19:03;15.73;;;7.28;;
25717;SDS011;13574;52.040;5.692;2023-04-24T05:21:29;13.82;;;7.63;;
25717;SDS011;13574;52.040;5.692;2023-04-24T05:23:55;16.67;;;8.18;;
25717;SDS011;13574;52.040;5.692;2023-04-24T05:26:21;16.02;;;8.68;;
25717;SDS011;13574;52.040;5.692;2023-04-24T05:28:47;14.18;;;7.60;;
25717;SDS011;13574;52.040;5.692;2023-04-24T05:31:13;14.85;;;8.30;;
25717;SDS011;13574;52.040;5.692;2023-04-24T05:33:39;13.45;;;7.55;;
25717;SDS011;13574;52.040;5.692;2023-04-24T05:36:05;12.98;;;6.60;;
25717;SDS011;13574;52.040;5.692;2023-04-24T05:38:31;11.57;;;6.45;;
25717;SDS011;13574;52.040;5.692;2023-04-24T05:40:57;11.32;;;6.15;;
25717;SDS011;13574;52.040;5.692;2023-04-24T05:43:22;11.27;;;6.63;;
25717;SDS011;13574;52.040;5.692;2023-04-24T05:45:48;10.93;;;6.43;;
25717;SDS011;13574;52.040;5.692;2023-04-24T05:48:14;10.75;;;5.75;;
25717;SDS011;13574;52.040;5.692;2023-04-24T05:50:40;11.05;;;5.57;;
25717;SDS011;13574;52.040;5.692;2023-04-24T05:53:07;12.32;;;6.38;;
25717;SDS011;13574;52.040;5.692;2023-04-24T05:55:34;10.43;;;5.85;;
25717;SDS011;13574;52.040;5.692;2023-04-24T05:58:00;9.05;;;4.90;;
25717;SDS011;13574;52.040;5.692;2023-04-24T06:00:26;9.27;;;5.25;;
25717;SDS011;13574;52.040;5.692;2023-04-24T06:02:52;7.90;;;4.55;;
25717;SDS011;13574;52.040;5.692;2023-04-24T06:05:18;9.65;;;4.85;;
25717;SDS011;13574;52.040;5.692;2023-04-24T06:07:44;7.65;;;4.70;;
25717;SDS011;13574;52.040;5.692;2023-04-24T06:10:10;7.18;;;4.10;;
25717;SDS011;13574;52.040;5.692;2023-04-24T06:12:35;6.93;;;4.28;;
25717;SDS011;13574;52.040;5.692;2023-04-24T06:15:01;9.93;;;5.00;;
25717;SDS011;13574;52.040;5.692;2023-04-24T06:17:28;6.95;;;3.92;;
25717;SDS011;13574;52.040;5.692;2023-04-24T06:19:54;6.20;;;4.07;;
25717;SDS011;13574;52.040;5.692;2023-04-24T06:22:19;9.02;;;4.90;;
25717;SDS011;13574;52.040;5.692;2023-04-24T06:24:45;6.35;;;4.20;;
25717;SDS011;13574;52.040;5.692;2023-04-24T06:27:12;5.85;;;3.42;;
25717;SDS011;13574;52.040;5.692;2023-04-24T06:29:37;6.00;;;3.78;;
25717;SDS011;13574;52.040;5.692;2023-04-24T06:32:03;5.75;;;3.38;;
25717;SDS011;13574;52.040;5.692;2023-04-24T06:34:29;6.30;;;3.55;;
25717;SDS011;13574;52.040;5.692;2023-04-24T06:36:55;5.57;;;3.17;;
25717;SDS011;13574;52.040;5.692;2023-04-24T06:39:21;6.32;;;3.58;;
25717;SDS011;13574;52.040;5.692;2023-04-24T06:41:47;5.22;;;3.13;;
25717;SDS011;13574;52.040;5.692;2023-04-24T06:44:12;7.15;;;3.22;;
25717;SDS011;13574;52.040;5.692;2023-04-24T06:46:39;6.32;;;3.20;;
25717;SDS011;13574;52.040;5.692;2023-04-24T06:49:06;5.60;;;3.50;;
25717;SDS011;13574;52.040;5.692;2023-04-24T06:51:31;5.95;;;3.05;;
25717;SDS011;13574;52.040;5.692;2023-04-24T06:53:58;8.65;;;3.63;;
25717;SDS011;13574;52.040;5.692;2023-04-24T06:56:24;8.40;;;3.75;;
25717;SDS011;13574;52.040;5.692;2023-04-24T06:58:50;6.45;;;3.53;;
25717;SDS011;13574;52.040;5.692;2023-04-24T07:01:16;9.55;;;3.53;;
25717;SDS011;13574;52.040;5.692;2023-04-24T07:03:42;7.55;;;3.80;;
25717;SDS011;13574;52.040;5.692;2023-04-24T07:06:09;7.63;;;3.65;;
25717;SDS011;13574;52.040;5.692;2023-04-24T07:08:37;7.95;;;3.83;;
25717;SDS011;13574;52.040;5.692;2023-04-24T07:11:03;5.90;;;2.90;;
25717;SDS011;13574;52.040;5.692;2023-04-24T07:13:29;5.57;;;3.22;;
25717;SDS011;13574;52.040;5.692;2023-04-24T07:15:55;5.47;;;2.78;;
25717;SDS011;13574;52.040;5.692;2023-04-24T07:18:21;4.43;;;2.80;;
25717;SDS011;13574;52.040;5.692;2023-04-24T07:20:47;5.32;;;2.78;;
25717;SDS011;13574;52.040;5.692;2023-04-24T07:23:15;8.18;;;4.03;;
25717;SDS011;13574;52.040;5.692;2023-04-24T07:25:41;9.95;;;4.57;;
25717;SDS011;13574;52.040;5.692;2023-04-24T07:28:06;8.25;;;4.22;;
25717;SDS011;13574;52.040;5.692;2023-04-24T07:30:32;11.13;;;5.30;;
25717;SDS011;13574;52.040;5.692;2023-04-24T07:32:58;10.32;;;6.05;;
25717;SDS011;13574;52.040;5.692;2023-04-24T07:35:25;11.18;;;6.40;;
25717;SDS011;13574;52.040;5.692;2023-04-24T07:37:53;12.02;;;6.72;;
25717;SDS011;13574;52.040;5.692;2023-04-24T07:40:19;12.98;;;7.25;;
25717;SDS011;13574;52.040;5.692;2023-04-24T07:42:45;15.32;;;7.65;;
25717;SDS011;13574;52.040;5.692;2023-04-24T07:45:13;14.32;;;7.70;;
25717;SDS011;13574;52.040;5.692;2023-04-24T07:47:39;14.48;;;7.28;;
25717;SDS011;13574;52.040;5.692;2023-04-24T07:50:08;15.68;;;7.85;;
25717;SDS011;13574;52.040;5.692;2023-04-24T07:52:35;19.33;;;8.40;;
25717;SDS011;13574;52.040;5.692;2023-04-24T07:55:01;17.80;;;8.20;;
25717;SDS011;13574;52.040;5.692;2023-04-24T07:57:27;14.02;;;8.45;;
25717;SDS011;13574;52.040;5.692;2023-04-24T07:59:53;14.18;;;8.60;;
25717;SDS011;13574;52.040;5.692;2023-04-24T08:02:19;15.80;;;8.60;;
25717;SDS011;13574;52.040;5.692;2023-04-24T08:04:46;16.58;;;8.13;;
25717;SDS011;13574;52.040;5.692;2023-04-24T08:07:12;15.60;;;8.00;;
25717;SDS011;13574;52.040;5.692;2023-04-24T08:09:38;15.82;;;8.13;;
25717;SDS011;13574;52.040;5.692;2023-04-24T08:12:03;15.70;;;7.78;;
25717;SDS011;13574;52.040;5.692;2023-04-24T08:14:29;14.27;;;8.32;;
25717;SDS011;13574;52.040;5.692;2023-04-24T08:16:56;14.40;;;8.00;;
25717;SDS011;13574;52.040;5.692;2023-04-24T08:22:45;15.98;;;8.45;;
25717;SDS011;13574;52.040;5.692;2023-04-24T08:28:50;15.95;;;8.10;;
25717;SDS011;13574;52.040;5.692;2023-04-24T08:34:38;14.43;;;8.50;;
25717;SDS011;13574;52.040;5.692;2023-04-24T08:37:03;19.92;;;9.07;;
25717;SDS011;13574;52.040;5.692;2023-04-24T08:39:29;19.92;;;8.40;;
25717;SDS011;13574;52.040;5.692;2023-04-24T08:41:55;13.82;;;8.45;;
25717;SDS011;13574;52.040;5.692;2023-04-24T08:44:21;15.63;;;7.15;;
25717;SDS011;13574;52.040;5.692;2023-04-24T08:46:50;12.23;;;6.22;;
25717;SDS011;13574;52.040;5.692;2023-04-24T08:49:16;15.75;;;5.28;;
25717;SDS011;13574;52.040;5.692;2023-04-24T08:51:43;14.63;;;6.40;;
25717;SDS011;13574;52.040;5.692;2023-04-24T08:54:10;13.13;;;5.70;;
25717;SDS011;13574;52.040;5.692;2023-04-24T08:56:37;11.77;;;4.65;;
25717;SDS011;13574;52.040;5.692;2023-04-24T08:59:05;12.88;;;4.47;;
25717;SDS011;13574;52.040;5.692;2023-04-24T09:01:32;13.32;;;5.25;;
25717;SDS011;13574;52.040;5.692;2023-04-24T09:04:00;10.13;;;4.93;;
25717;SDS011;13574;52.040;5.692;2023-04-24T09:06:29;9.75;;;4.45;;
25717;SDS011;13574;52.040;5.692;2023-04-24T09:08:55;13.82;;;5.07;;
25717;SDS011;13574;52.040;5.692;2023-04-24T09:11:22;16.98;;;4.05;;
25717;SDS011;13574;52.040;5.692;2023-04-24T09:13:49;8.50;;;4.00;;
25717;SDS011;13574;52.040;5.692;2023-04-24T09:16:16;10.73;;;3.97;;
25717;SDS011;13574;52.040;5.692;2023-04-24T09:18:42;10.00;;;3.75;;
25717;SDS011;13574;52.040;5.692;2023-04-24T09:21:08;11.05;;;3.20;;
25717;SDS011;13574;52.040;5.692;2023-04-24T09:23:34;11.45;;;3.15;;
25717;SDS011;13574;52.040;5.692;2023-04-24T09:26:01;8.38;;;3.00;;
25717;SDS011;13574;52.040;5.692;2023-04-24T09:28:31;10.68;;;3.55;;
25717;SDS011;13574;52.040;5.692;2023-04-24T09:31:04;7.15;;;2.78;;
25717;SDS011;13574;52.040;5.692;2023-04-24T09:33:32;10.45;;;3.38;;
25717;SDS011;13574;52.040;5.692;2023-04-24T09:35:57;8.82;;;3.25;;
25717;SDS011;13574;52.040;5.692;2023-04-24T09:38:30;9.80;;;3.33;;
25717;SDS011;13574;52.040;5.692;2023-04-24T09:41:35;13.77;;;3.10;;
25717;SDS011;13574;52.040;5.692;2023-04-24T09:44:12;8.30;;;3.08;;
25717;SDS011;13574;52.040;5.692;2023-04-24T09:46:41;11.25;;;2.92;;
25717;SDS011;13574;52.040;5.692;2023-04-24T09:49:14;9.90;;;3.85;;
25717;SDS011;13574;52.040;5.692;2023-04-24T09:51:41;7.68;;;2.70;;
25717;SDS011;13574;52.040;5.692;2023-04-24T09:54:13;10.60;;;2.75;;
25717;SDS011;13574;52.040;5.692;2023-04-24T09:56:45;10.45;;;2.95;;
25717;SDS011;13574;52.040;5.692;2023-04-24T09:59:13;7.35;;;2.90;;
25717;SDS011;13574;52.040;5.692;2023-04-24T10:05:02;10.02;;;2.42;;
25717;SDS011;13574;52.040;5.692;2023-04-24T10:10:52;8.95;;;2.70;;
25717;SDS011;13574;52.040;5.692;2023-04-24T10:13:18;9.30;;;2.60;;
25717;SDS011;13574;52.040;5.692;2023-04-24T10:15:43;14.23;;;2.80;;
25717;SDS011;13574;52.040;5.692;2023-04-24T10:18:11;10.13;;;2.90;;
25717;SDS011;13574;52.040;5.692;2023-04-24T10:20:38;8.25;;;2.38;;
25717;SDS011;13574;52.040;5.692;2023-04-24T10:23:05;6.93;;;2.13;;
25717;SDS011;13574;52.040;5.692;2023-04-24T10:25:31;8.50;;;2.20;;
25717;SDS011;13574;52.040;5.692;2023-04-24T10:27:59;6.72;;;2.40;;
25717;SDS011;13574;52.040;5.692;2023-04-24T10:30:26;6.78;;;2.38;;
25717;SDS011;13574;52.040;5.692;2023-04-24T10:32:54;6.78;;;2.13;;
25717;SDS011;13574;52.040;5.692;2023-04-24T10:35:19;8.35;;;2.40;;
25717;SDS011;13574;52.040;5.692;2023-04-24T10:38:06;6.57;;;2.30;;
25717;SDS011;13574;52.040;5.692;2023-04-24T10:40:36;7.70;;;2.50;;
25717;SDS011;13574;52.040;5.692;2023-04-24T10:43:02;7.10;;;2.13;;
25717;SDS011;13574;52.040;5.692;2023-04-24T10:45:31;8.55;;;2.17;;
25717;SDS011;13574;52.040;5.692;2023-04-24T10:48:04;6.55;;;2.40;;
25717;SDS011;13574;52.040;5.692;2023-04-24T10:50:52;7.82;;;2.50;;
25717;SDS011;13574;52.040;5.692;2023-04-24T10:53:27;3.20;;;1.65;;
25717;SDS011;13574;52.040;5.692;2023-04-24T10:56:07;6.25;;;1.80;;
25717;SDS011;13574;52.040;5.692;2023-04-24T10:58:45;5.90;;;1.83;;
25717;SDS011;13574;52.040;5.692;2023-04-24T11:01:30;3.63;;;1.52;;
25717;SDS011;13574;52.040;5.692;2023-04-24T11:03:58;5.40;;;1.10;;
25717;SDS011;13574;52.040;5.692;2023-04-24T11:06:36;4.10;;;1.42;;
25717;SDS011;13574;52.040;5.692;2023-04-24T11:09:02;5.57;;;2.13;;
25717;SDS011;13574;52.040;5.692;2023-04-24T11:11:38;3.72;;;1.50;;
25717;SDS011;13574;52.040;5.692;2023-04-24T11:14:09;4.03;;;1.45;;
25717;SDS011;13574;52.040;5.692;2023-04-24T11:27:13;2.53;;;0.98;;
25717;SDS011;13574;52.040;5.692;2023-04-24T11:29:46;2.33;;;0.85;;
25717;SDS011;13574;52.040;5.692;2023-04-24T11:34:54;3.63;;;0.80;;
25717;SDS011;13574;52.040;5.692;2023-04-24T11:37:36;4.32;;;1.20;;
25717;SDS011;13574;52.040;5.692;2023-04-24T11:40:03;3.67;;;0.73;;
25717;SDS011;13574;52.040;5.692;2023-04-24T11:42:34;4.55;;;0.95;;
25717;SDS011;13574;52.040;5.692;2023-04-24T11:45:00;1.85;;;0.88;;
25717;SDS011;13574;52.040;5.692;2023-04-24T11:47:30;4.28;;;1.05;;
25717;SDS011;13574;52.040;5.692;2023-04-24T11:49:58;3.85;;;1.25;;
25717;SDS011;13574;52.040;5.692;2023-04-24T11:52:25;2.55;;;1.10;;
25717;SDS011;13574;52.040;5.692;2023-04-24T11:54:52;4.13;;;0.90;;
25717;SDS011;13574;52.040;5.692;2023-04-24T11:57:21;4.15;;;0.90;;
25717;SDS011;13574;52.040;5.692;2023-04-24T11:59:51;1.48;;;0.85;;
25717;SDS011;13574;52.040;5.692;2023-04-24T12:02:20;3.78;;;1.05;;
25717;SDS011;13574;52.040;5.692;2023-04-24T12:04:47;2.40;;;1.00;;
25717;SDS011;13574;52.040;5.692;2023-04-24T12:07:13;4.55;;;1.08;;
25717;SDS011;13574;52.040;5.692;2023-04-24T12:09:42;4.00;;;1.00;;
25717;SDS011;13574;52.040;5.692;2023-04-24T12:12:10;4.90;;;1.25;;
25717;SDS011;13574;52.040;5.692;2023-04-24T12:14:50;3.22;;;1.00;;
25717;SDS011;13574;52.040;5.692;2023-04-24T12:17:23;2.78;;;0.90;;
25717;SDS011;13574;52.040;5.692;2023-04-24T12:19:57;4.82;;;1.20;;
25717;SDS011;13574;52.040;5.692;2023-04-24T12:25:21;2.80;;;1.00;;
25717;SDS011;13574;52.040;5.692;2023-04-24T12:27:52;2.80;;;0.90;;
25717;SDS011;13574;52.040;5.692;2023-04-24T12:30:48;2.80;;;0.88;;
25717;SDS011;13574;52.040;5.692;2023-04-24T12:33:17;4.80;;;0.80;;
25717;SDS011;13574;52.040;5.692;2023-04-24T12:35:44;1.50;;;0.73;;
25717;SDS011;13574;52.040;5.692;2023-04-24T12:38:11;3.88;;;1.00;;
25717;SDS011;13574;52.040;5.692;2023-04-24T12:40:38;1.42;;;0.70;;
25717;SDS011;13574;52.040;5.692;2023-04-24T12:43:16;3.60;;;1.35;;
25717;SDS011;13574;52.040;5.692;2023-04-24T12:45:43;3.35;;;1.20;;
25717;SDS011;13574;52.040;5.692;2023-04-24T12:48:12;4.82;;;1.17;;
25717;SDS011;13574;52.040;5.692;2023-04-24T12:50:39;4.50;;;1.30;;
25717;SDS011;13574;52.040;5.692;2023-04-24T12:53:05;3.28;;;0.95;;
25717;SDS011;13574;52.040;5.692;2023-04-24T12:55:31;6.13;;;1.42;;
25717;SDS011;13574;52.040;5.692;2023-04-24T12:57:57;3.28;;;1.05;;
25717;SDS011;13574;52.040;5.692;2023-04-24T13:00:23;2.78;;;1.20;;
25717;SDS011;13574;52.040;5.692;2023-04-24T13:02:49;4.28;;;1.30;;
25717;SDS011;13574;52.040;5.692;2023-04-24T13:05:15;6.38;;;1.40;;
25717;SDS011;13574;52.040;5.692;2023-04-24T13:07:41;5.03;;;1.25;;
25717;SDS011;13574;52.040;5.692;2023-04-24T13:10:07;5.22;;;1.10;;
25717;SDS011;13574;52.040;5.692;2023-04-24T13:12:33;3.63;;;1.23;;
25717;SDS011;13574;52.040;5.692;2023-04-24T13:14:59;7.65;;;1.67;;
25717;SDS011;13574;52.040;5.692;2023-04-24T13:17:25;3.45;;;1.40;;
25717;SDS011;13574;52.040;5.692;2023-04-24T13:19:51;2.70;;;1.40;;
25717;SDS011;13574;52.040;5.692;2023-04-24T13:22:19;5.03;;;1.35;;
25717;SDS011;13574;52.040;5.692;2023-04-24T13:24:45;4.18;;;1.50;;
25717;SDS011;13574;52.040;5.692;2023-04-24T13:27:13;4.07;;;1.35;;
25717;SDS011;13574;52.040;5.692;2023-04-24T13:29:40;7.88;;;2.00;;
25717;SDS011;13574;52.040;5.692;2023-04-24T13:32:05;3.47;;;1.70;;
25717;SDS011;13574;52.040;5.692;2023-04-24T13:34:31;8.80;;;2.13;;
25717;SDS011;13574;52.040;5.692;2023-04-24T13:36:57;7.05;;;1.58;;
25717;SDS011;13574;52.040;5.692;2023-04-24T13:39:23;5.25;;;1.60;;
25717;SDS011;13574;52.040;5.692;2023-04-24T13:41:50;4.63;;;1.55;;
25717;SDS011;13574;52.040;5.692;2023-04-24T13:44:16;6.38;;;1.25;;
25717;SDS011;13574;52.040;5.692;2023-04-24T13:46:43;6.70;;;1.40;;
25717;SDS011;13574;52.040;5.692;2023-04-24T13:49:10;7.05;;;1.50;;
25717;SDS011;13574;52.040;5.692;2023-04-24T13:51:40;4.93;;;1.50;;
25717;SDS011;13574;52.040;5.692;2023-04-24T13:54:06;7.00;;;2.10;;
25717;SDS011;13574;52.040;5.692;2023-04-24T13:56:32;5.47;;;1.70;;
25717;SDS011;13574;52.040;5.692;2023-04-24T13:58:57;5.70;;;1.67;;
25717;SDS011;13574;52.040;5.692;2023-04-24T14:01:23;6.57;;;1.85;;
25717;SDS011;13574;52.040;5.692;2023-04-24T14:03:52;6.40;;;1.48;;
25717;SDS011;13574;52.040;5.692;2023-04-24T14:06:19;7.20;;;1.77;;
25717;SDS011;13574;52.040;5.692;2023-04-24T14:08:45;9.50;;;2.15;;
25717;SDS011;13574;52.040;5.692;2023-04-24T14:11:11;7.20;;;1.92;;
25717;SDS011;13574;52.040;5.692;2023-04-24T14:13:37;10.25;;;2.10;;
25717;SDS011;13574;52.040;5.692;2023-04-24T14:16:05;6.78;;;1.77;;
25717;SDS011;13574;52.040;5.692;2023-04-24T14:18:30;7.22;;;1.80;;
25717;SDS011;13574;52.040;5.692;2023-04-24T14:20:56;4.93;;;1.80;;
25717;SDS011;13574;52.040;5.692;2023-04-24T14:23:22;9.15;;;2.20;;
25717;SDS011;13574;52.040;5.692;2023-04-24T14:25:47;9.45;;;2.20;;
25717;SDS011;13574;52.040;5.692;2023-04-24T14:28:16;5.82;;;2.15;;
25717;SDS011;13574;52.040;5.692;2023-04-24T14:30:45;8.13;;;1.70;;
25717;SDS011;13574;52.040;5.692;2023-04-24T14:33:12;9.23;;;1.90;;
25717;SDS011;13574;52.040;5.692;2023-04-24T14:35:38;6.75;;;2.15;;
25717;SDS011;13574;52.040;5.692;2023-04-24T14:38:05;7.43;;;1.67;;
25717;SDS011;13574;52.040;5.692;2023-04-24T14:40:30;5.68;;;1.83;;
25717;SDS011;13574;52.040;5.692;2023-04-24T14:42:57;8.07;;;1.83;;
25717;SDS011;13574;52.040;5.692;2023-04-24T14:45:23;7.93;;;1.83;;
25717;SDS011;13574;52.040;5.692;2023-04-24T14:47:49;5.53;;;1.85;;
25717;SDS011;13574;52.040;5.692;2023-04-24T14:50:15;6.28;;;1.80;;
25717;SDS011;13574;52.040;5.692;2023-04-24T14:52:41;8.73;;;1.90;;
25717;SDS011;13574;52.040;5.692;2023-04-24T14:55:06;11.10;;;2.42;;
25717;SDS011;13574;52.040;5.692;2023-04-24T14:57:33;8.57;;;2.30;;
25717;SDS011;13574;52.040;5.692;2023-04-24T14:59:59;5.05;;;2.35;;
25717;SDS011;13574;52.040;5.692;2023-04-24T15:02:25;7.97;;;2.65;;
25717;SDS011;13574;52.040;5.692;2023-04-24T15:04:50;7.97;;;2.10;;
25717;SDS011;13574;52.040;5.692;2023-04-24T15:07:16;9.63;;;2.22;;
25717;SDS011;13574;52.040;5.692;2023-04-24T15:09:42;7.63;;;2.30;;
25717;SDS011;13574;52.040;5.692;2023-04-24T15:12:08;9.90;;;2.65;;
25717;SDS011;13574;52.040;5.692;2023-04-24T15:14:34;8.13;;;3.05;;
25717;SDS011;13574;52.040;5.692;2023-04-24T15:17:00;10.48;;;2.97;;